createdAt,value
2023-03-17T00:01:58.664Z,5.10
2023-03-17T00:04:28.170Z,6.60
2023-03-17T00:06:58.192Z,6.80
2023-03-17T00:09:26.982Z,8.80
2023-03-17T00:11:55.659Z,8.60
2023-03-17T00:14:24.163Z,9.50
2023-03-17T00:16:53.359Z,12.60
2023-03-17T00:19:31.155Z,8.40
2023-03-17T00:22:01.577Z,9.70
2023-03-17T00:24:30.161Z,10.40
2023-03-17T00:26:59.250Z,5.50
2023-03-17T00:29:28.166Z,5.10
2023-03-17T00:31:57.963Z,5.70
2023-03-17T00:34:27.461Z,4.50
2023-03-17T00:36:56.247Z,5.80
2023-03-17T00:39:25.757Z,6.60
2023-03-17T00:41:56.267Z,5.20
2023-03-17T00:44:25.785Z,5.00
2023-03-17T00:46:55.458Z,7.10
2023-03-17T00:49:26.085Z,5.20
2023-03-17T00:51:55.344Z,6.60
2023-03-17T00:54:24.432Z,6.00
2023-03-17T00:56:53.008Z,7.80
2023-03-17T00:59:42.584Z,6.00
2023-03-17T01:02:14.102Z,5.90
2023-03-17T01:04:49.978Z,9.50
2023-03-17T01:07:22.876Z,7.40
2023-03-17T01:09:51.465Z,8.40
2023-03-17T01:12:20.663Z,7.20
2023-03-17T01:14:51.086Z,7.20
2023-03-17T01:17:20.543Z,6.80
2023-03-17T01:19:48.973Z,6.10
2023-03-17T01:22:17.965Z,6.50
2023-03-17T01:24:47.948Z,6.10
2023-03-17T01:27:18.224Z,5.20
2023-03-17T01:29:47.304Z,6.50
2023-03-17T01:32:16.710Z,7.30
2023-03-17T01:34:46.011Z,5.80
2023-03-17T01:37:15.540Z,7.10
2023-03-17T01:39:43.894Z,6.50
2023-03-17T01:42:13.802Z,5.20
2023-03-17T01:45:05.758Z,4.90
2023-03-17T01:47:34.636Z,4.50
2023-03-17T01:50:09.013Z,5.10
2023-03-17T01:52:40.122Z,8.10
2023-03-17T01:55:18.209Z,6.00
2023-03-17T01:57:54.436Z,7.20
2023-03-17T02:00:25.196Z,8.10
2023-03-17T02:02:56.334Z,7.20
2023-03-17T02:05:30.154Z,5.50
2023-03-17T02:07:59.351Z,6.40
2023-03-17T02:10:31.056Z,8.30
2023-03-17T02:13:02.976Z,5.50
2023-03-17T02:15:50.239Z,6.10
2023-03-17T02:18:22.889Z,8.60
2023-03-17T02:20:54.047Z,3.90
2023-03-17T02:23:23.815Z,4.70
2023-03-17T02:25:54.143Z,3.60
2023-03-17T02:28:30.149Z,6.00
2023-03-17T02:30:58.939Z,7.50
2023-03-17T02:33:27.998Z,3.70
2023-03-17T02:35:57.856Z,3.90
2023-03-17T02:38:26.293Z,5.80
2023-03-17T02:40:54.883Z,5.90
2023-03-17T02:43:23.873Z,5.70
2023-03-17T02:45:52.581Z,7.20
2023-03-17T02:48:22.990Z,3.70
2023-03-17T02:50:51.784Z,5.40
2023-03-17T02:53:20.326Z,5.40
2023-03-17T02:55:48.746Z,9.20
2023-03-17T02:58:17.706Z,6.50
2023-03-17T03:00:46.626Z,6.00
2023-03-17T03:03:15.107Z,15.20
2023-03-17T03:05:43.690Z,11.20
2023-03-17T03:08:12.582Z,8.30
2023-03-17T03:10:42.095Z,10.50
2023-03-17T03:13:12.690Z,8.30
2023-03-17T03:15:42.726Z,10.00
2023-03-17T03:18:12.656Z,11.80
2023-03-17T03:20:43.360Z,10.40
2023-03-17T03:23:12.485Z,11.10
2023-03-17T03:25:41.171Z,16.40
2023-03-17T03:28:10.376Z,16.10
2023-03-17T03:30:39.727Z,18.10
2023-03-17T03:33:08.253Z,15.10
2023-03-17T03:35:37.165Z,12.20
2023-03-17T03:38:05.631Z,11.00
2023-03-17T03:40:36.368Z,12.60
2023-03-17T03:43:16.264Z,10.30
2023-03-17T03:45:48.993Z,14.20
2023-03-17T03:48:17.855Z,11.20
2023-03-17T03:50:46.468Z,11.60
2023-03-17T03:53:15.969Z,12.90
2023-03-17T03:55:44.563Z,12.00
2023-03-17T03:58:13.033Z,11.20
2023-03-17T04:00:41.928Z,11.70
2023-03-17T04:03:10.796Z,11.70
2023-03-17T04:05:39.751Z,12.90
2023-03-17T04:08:08.397Z,11.70
2023-03-17T04:10:37.182Z,11.60
2023-03-17T04:13:05.662Z,13.30
2023-03-17T04:15:34.274Z,12.60
2023-03-17T04:18:02.831Z,13.70
2023-03-17T04:20:32.589Z,12.10
2023-03-17T04:23:01.288Z,12.90
2023-03-17T04:25:30.299Z,14.10
2023-03-17T04:27:58.594Z,14.40
2023-03-17T04:30:27.625Z,16.00
2023-03-17T04:32:56.761Z,11.80
2023-03-17T04:35:25.171Z,12.00
2023-03-17T04:37:53.859Z,16.50
2023-03-17T04:40:22.646Z,12.80
2023-03-17T04:42:51.331Z,13.60
2023-03-17T04:45:20.029Z,14.40
2023-03-17T04:47:48.503Z,14.00
2023-03-17T04:50:18.313Z,15.20
2023-03-17T04:52:46.899Z,15.60
2023-03-17T04:55:16.550Z,21.70
2023-03-17T04:57:45.403Z,16.40
2023-03-17T05:00:15.720Z,17.20
2023-03-17T05:02:44.618Z,15.10
2023-03-17T05:05:13.193Z,16.10
2023-03-17T05:07:42.048Z,17.90
2023-03-17T05:10:12.752Z,16.80
2023-03-17T05:12:41.098Z,20.30
2023-03-17T05:15:10.297Z,15.90
2023-03-17T05:17:38.891Z,22.20
2023-03-17T05:20:08.691Z,18.90
2023-03-17T05:22:37.790Z,21.30
2023-03-17T05:25:07.162Z,21.20
2023-03-17T05:27:35.675Z,25.00
2023-03-17T05:30:04.909Z,27.50
2023-03-17T05:32:33.363Z,29.60
2023-03-17T05:35:02.449Z,38.20
2023-03-17T05:37:30.932Z,46.30
2023-03-17T05:39:59.926Z,36.10
2023-03-17T05:42:28.522Z,29.60
2023-03-17T05:44:56.899Z,21.20
2023-03-17T05:47:27.112Z,21.60
2023-03-17T05:49:55.593Z,19.60
2023-03-17T05:52:24.287Z,19.40
2023-03-17T05:54:53.862Z,19.30
2023-03-17T05:57:22.683Z,18.70
2023-03-17T05:59:51.264Z,18.70
2023-03-17T06:02:19.668Z,17.20
2023-03-17T06:04:48.538Z,18.30
2023-03-17T06:07:17.729Z,14.80
2023-03-17T06:09:46.091Z,17.80
2023-03-17T06:12:14.395Z,14.70
2023-03-17T06:14:42.884Z,15.00
2023-03-17T06:17:12.961Z,13.50
2023-03-17T06:19:42.092Z,9.80
2023-03-17T06:22:10.677Z,14.80
2023-03-17T06:24:39.570Z,17.10
2023-03-17T06:27:09.904Z,10.80
2023-03-17T06:29:38.280Z,11.80
2023-03-17T06:32:19.863Z,9.90
2023-03-17T06:34:49.675Z,12.60
2023-03-17T06:37:18.235Z,10.00
2023-03-17T06:39:48.385Z,10.10
2023-03-17T06:42:17.391Z,10.20
2023-03-17T06:44:46.469Z,9.40
2023-03-17T06:47:15.054Z,11.50
2023-03-17T06:49:43.640Z,7.70
2023-03-17T06:52:13.574Z,9.00
2023-03-17T06:54:42.766Z,9.30
2023-03-17T06:57:12.363Z,11.70
2023-03-17T06:59:41.873Z,9.80
2023-03-17T07:02:12.059Z,7.90
2023-03-17T07:04:40.874Z,11.90
2023-03-17T07:07:09.977Z,8.50
2023-03-17T07:09:38.502Z,10.30
2023-03-17T07:12:07.057Z,6.30
2023-03-17T07:14:37.163Z,10.30
2023-03-17T07:17:06.981Z,7.20
2023-03-17T07:19:35.560Z,7.70
2023-03-17T07:22:04.145Z,8.30
2023-03-17T07:24:32.630Z,9.50
2023-03-17T07:27:01.110Z,10.20
2023-03-17T07:29:29.974Z,9.20
2023-03-17T07:31:58.794Z,8.90
2023-03-17T07:34:28.448Z,9.00
2023-03-17T07:36:56.959Z,10.30
2023-03-17T07:39:25.198Z,8.10
2023-03-17T07:41:55.491Z,8.30
2023-03-17T07:44:24.987Z,7.10
2023-03-17T07:46:53.711Z,8.70
2023-03-17T07:49:38.191Z,8.00
2023-03-17T07:52:10.543Z,5.80
2023-03-17T07:54:42.993Z,6.80
2023-03-17T07:57:12.584Z,9.10
2023-03-17T07:59:41.889Z,7.40
2023-03-17T08:02:16.744Z,7.40
2023-03-17T08:04:45.940Z,7.00
2023-03-17T08:07:15.840Z,5.40
2023-03-17T08:09:44.324Z,9.30
2023-03-17T08:12:13.736Z,7.00
2023-03-17T08:14:42.105Z,6.70
2023-03-17T08:17:11.827Z,5.90
2023-03-17T08:19:41.358Z,10.50
2023-03-17T08:22:10.634Z,11.50
2023-03-17T08:24:41.380Z,6.10
2023-03-17T08:27:10.359Z,7.40
2023-03-17T08:29:39.289Z,4.90
2023-03-17T08:32:08.885Z,6.80
2023-03-17T08:34:38.415Z,6.70
2023-03-17T08:37:10.075Z,5.80
2023-03-17T08:39:40.650Z,6.80
2023-03-17T08:42:09.174Z,6.00
2023-03-17T08:44:38.026Z,7.60
2023-03-17T08:47:07.017Z,6.70
2023-03-17T08:49:36.734Z,9.10
2023-03-17T08:52:05.725Z,9.00
2023-03-17T08:54:34.969Z,6.30
2023-03-17T08:57:04.356Z,4.90
2023-03-17T08:59:33.750Z,8.00
2023-03-17T09:02:02.317Z,6.10
2023-03-17T09:04:32.754Z,14.00
2023-03-17T09:07:04.083Z,6.50
2023-03-17T09:09:35.507Z,6.80
2023-03-17T09:12:06.448Z,7.60
2023-03-17T09:14:43.329Z,9.80
2023-03-17T09:17:14.796Z,7.70
2023-03-17T09:19:43.917Z,7.00
2023-03-17T09:22:14.661Z,7.30
2023-03-17T09:24:43.307Z,12.50
2023-03-17T09:27:12.847Z,8.40
2023-03-17T09:29:42.359Z,4.10
2023-03-17T09:32:11.434Z,6.70
2023-03-17T09:34:40.286Z,6.20
2023-03-17T09:37:10.022Z,5.20
2023-03-17T09:39:38.911Z,11.70
2023-03-17T09:42:41.558Z,11.50
2023-03-17T09:45:25.680Z,11.40
2023-03-17T09:48:12.304Z,5.20
2023-03-17T09:50:51.410Z,8.20
2023-03-17T09:53:28.596Z,9.30
2023-03-17T09:55:59.307Z,6.40
2023-03-17T09:58:36.515Z,6.00
2023-03-17T10:01:06.013Z,5.80
2023-03-17T10:03:35.052Z,6.80
2023-03-17T10:06:23.163Z,5.00
2023-03-17T10:09:00.976Z,3.30
2023-03-17T10:11:33.143Z,10.20
2023-03-17T10:14:02.047Z,7.50
2023-03-17T10:16:58.503Z,10.50
2023-03-17T10:19:42.509Z,5.40
2023-03-17T10:22:14.646Z,5.00
2023-03-17T10:24:49.667Z,7.00
2023-03-17T10:27:18.610Z,6.30
2023-03-17T10:29:48.671Z,6.00
2023-03-17T10:32:17.625Z,6.30
2023-03-17T10:34:47.602Z,7.30
2023-03-17T10:37:23.121Z,6.50
2023-03-17T10:39:54.853Z,6.80
2023-03-17T10:42:29.316Z,6.30
2023-03-17T10:45:27.955Z,4.90
2023-03-17T10:47:58.713Z,6.70
2023-03-17T10:50:30.896Z,10.70
2023-03-17T10:53:06.306Z,12.80
2023-03-17T10:55:42.909Z,6.30
2023-03-17T10:58:22.212Z,7.20
2023-03-17T11:01:06.089Z,3.60
2023-03-17T11:03:40.119Z,5.30
2023-03-17T11:06:15.010Z,6.10
2023-03-17T11:08:55.472Z,4.90
2023-03-17T11:11:34.821Z,11.20
2023-03-17T11:14:18.849Z,5.60
2023-03-17T11:16:56.252Z,7.30
2023-03-17T11:19:40.088Z,5.30
2023-03-17T11:22:15.938Z,5.10
2023-03-17T11:24:52.927Z,5.10
2023-03-17T11:27:32.980Z,5.60
2023-03-17T11:30:15.071Z,4.30
2023-03-17T11:33:06.408Z,7.00
2023-03-17T11:35:58.768Z,5.10
2023-03-17T11:38:29.760Z,3.90
2023-03-17T11:41:04.987Z,4.50
2023-03-17T11:43:39.859Z,6.60
2023-03-17T11:46:23.970Z,4.40
2023-03-17T11:49:19.389Z,4.60
2023-03-17T11:52:12.378Z,5.80
2023-03-17T11:55:00.276Z,9.80
2023-03-17T11:57:40.364Z,11.80
2023-03-17T12:00:23.942Z,5.10
2023-03-17T12:03:01.118Z,5.70
2023-03-17T12:05:32.925Z,4.00
2023-03-17T12:08:23.549Z,5.90
2023-03-17T12:10:55.745Z,10.60
2023-03-17T12:13:39.571Z,10.60
2023-03-17T12:16:21.463Z,5.10
2023-03-17T12:18:58.342Z,3.20
2023-03-17T12:21:50.889Z,6.70
2023-03-17T12:24:20.399Z,4.80
2023-03-17T12:27:02.181Z,6.70
2023-03-17T12:32:24.231Z,5.60
2023-03-17T12:34:57.398Z,5.50
2023-03-17T12:37:30.589Z,5.10
2023-03-17T12:40:08.014Z,6.90
2023-03-17T12:42:58.617Z,5.40
2023-03-17T12:46:16.083Z,34.80
2023-03-17T12:49:29.769Z,7.20
2023-03-17T12:52:21.829Z,4.90
2023-03-17T12:57:23.285Z,7.00
2023-03-17T13:00:01.119Z,5.90
2023-03-17T13:02:29.786Z,7.90
2023-03-17T13:05:01.147Z,7.00
2023-03-17T13:08:00.547Z,5.40
2023-03-17T13:10:41.008Z,5.70
2023-03-17T13:14:01.398Z,5.70
2023-03-17T13:17:29.682Z,4.40
2023-03-17T13:20:30.833Z,4.30
2023-03-17T13:23:31.577Z,5.20
2023-03-17T13:26:59.958Z,4.40
2023-03-17T13:29:56.613Z,6.50
2023-03-17T13:33:36.765Z,5.20
2023-03-17T13:37:07.282Z,6.40
2023-03-17T13:40:27.088Z,4.10
2023-03-17T13:44:01.956Z,6.80
2023-03-17T13:46:54.891Z,5.30
2023-03-17T13:50:23.272Z,4.90
2023-03-17T13:53:37.412Z,5.70
2023-03-17T14:01:02.228Z,6.00
2023-03-17T14:04:30.551Z,4.70
2023-03-17T14:07:59.755Z,4.70
2023-03-17T14:11:33.368Z,6.70
2023-03-17T14:14:32.993Z,5.70
2023-03-17T14:18:00.439Z,4.10
2023-03-17T14:21:38.966Z,4.60
2023-03-17T14:24:59.299Z,7.00
2023-03-17T14:28:33.693Z,4.80
2023-03-17T14:32:04.785Z,7.40
2023-03-17T14:35:35.909Z,5.10
2023-03-17T14:39:03.973Z,6.20
2023-03-17T14:42:38.301Z,5.20
2023-03-17T14:45:46.963Z,5.50
2023-03-17T14:49:16.339Z,5.30
2023-03-17T14:52:49.233Z,4.60
2023-03-17T14:56:17.309Z,6.40
2023-03-17T14:59:45.597Z,8.10
2023-03-17T15:18:00.885Z,10.70
2023-03-17T15:20:33.228Z,14.50
2023-03-17T15:23:06.353Z,7.50
2023-03-17T15:25:39.447Z,11.10
2023-03-17T15:28:16.858Z,11.30
2023-03-17T15:30:51.833Z,11.60
2023-03-17T15:33:29.482Z,14.60
2023-03-17T15:36:00.558Z,11.10
2023-03-17T15:38:30.629Z,8.00
2023-03-17T15:40:59.337Z,10.90
2023-03-17T15:43:27.698Z,8.40
2023-03-17T15:46:04.504Z,12.70
2023-03-17T15:48:36.547Z,10.20
2023-03-17T15:51:06.667Z,8.40
2023-03-17T15:53:35.146Z,9.90
2023-03-17T15:56:03.593Z,8.00
2023-03-17T15:58:32.715Z,9.30
2023-03-17T16:01:01.420Z,10.00
2023-03-17T16:03:36.224Z,11.60
2023-03-17T16:06:12.744Z,11.20
2023-03-17T16:08:41.805Z,11.00
2023-03-17T16:11:28.489Z,12.10
2023-03-17T16:14:00.013Z,8.50
2023-03-17T16:16:41.458Z,9.90
2023-03-17T16:19:18.840Z,9.40
2023-03-17T16:21:49.279Z,12.60
2023-03-17T16:24:24.045Z,11.20
2023-03-17T16:26:53.090Z,10.10
2023-03-17T16:29:22.290Z,32.20
2023-03-17T16:31:51.201Z,13.30
2023-03-17T16:34:22.805Z,15.70
2023-03-17T16:36:51.746Z,11.30
2023-03-17T16:39:22.699Z,10.80
2023-03-17T16:41:51.097Z,19.70
2023-03-17T16:44:21.687Z,10.40
2023-03-17T16:46:50.087Z,19.60
2023-03-17T16:49:21.135Z,13.40
2023-03-17T16:51:50.705Z,11.80
2023-03-17T16:54:19.846Z,11.70
2023-03-17T16:56:48.418Z,10.20
2023-03-17T16:59:21.617Z,14.60
2023-03-17T17:01:50.202Z,12.20
2023-03-17T17:04:18.581Z,12.10
2023-03-17T17:06:47.036Z,10.30
2023-03-17T17:09:15.627Z,15.10
2023-03-17T17:11:44.231Z,16.50
2023-03-17T17:14:12.862Z,9.30
2023-03-17T17:16:41.434Z,8.90
2023-03-17T17:19:16.495Z,13.70
2023-03-17T17:21:45.331Z,9.50
2023-03-17T17:24:14.811Z,14.20
2023-03-17T17:26:43.291Z,18.00
2023-03-17T17:29:12.490Z,14.30
2023-03-17T17:31:41.523Z,11.50
2023-03-17T17:34:10.176Z,13.70
2023-03-17T17:36:38.508Z,14.80
2023-03-17T17:39:07.353Z,23.90
2023-03-17T17:41:35.822Z,33.20
2023-03-17T17:44:05.739Z,14.80
2023-03-17T17:46:34.690Z,14.20
2023-03-17T17:49:03.736Z,10.50
2023-03-17T17:51:33.031Z,13.90
2023-03-17T17:54:01.818Z,15.20
2023-03-17T17:56:33.067Z,13.10
2023-03-17T17:59:02.143Z,9.40
2023-03-17T18:01:30.878Z,9.40
2023-03-17T18:03:59.530Z,8.40
2023-03-17T18:06:28.117Z,10.00
2023-03-17T18:08:58.091Z,11.30
2023-03-17T18:12:26.520Z,35.60
2023-03-17T18:18:47.838Z,9.40
2023-03-17T18:21:17.681Z,8.40
2023-03-17T18:23:50.231Z,10.70
2023-03-17T18:26:20.374Z,8.90
2023-03-17T18:28:50.190Z,12.40
2023-03-17T18:31:46.493Z,10.90
2023-03-17T18:34:25.041Z,10.70
2023-03-17T18:36:56.052Z,14.30
2023-03-17T18:39:24.566Z,12.50
2023-03-17T18:41:53.263Z,8.70
2023-03-17T18:44:23.984Z,13.00
2023-03-17T18:46:53.085Z,11.80
2023-03-17T18:49:24.434Z,15.50
2023-03-17T18:51:54.152Z,14.90
2023-03-17T18:54:24.059Z,10.80
2023-03-17T18:56:52.544Z,9.30
2023-03-17T18:59:21.021Z,11.20
2023-03-17T19:01:49.712Z,9.40
2023-03-17T19:04:18.396Z,6.30
2023-03-17T19:06:47.288Z,10.50
2023-03-17T19:09:16.455Z,13.80
2023-03-17T19:11:45.093Z,13.80
2023-03-17T19:14:14.317Z,12.80
2023-03-17T19:16:43.638Z,12.10
2023-03-17T19:19:12.156Z,11.00
2023-03-17T19:21:40.534Z,6.80
2023-03-17T19:24:12.156Z,6.90
2023-03-17T19:26:40.987Z,10.10
2023-03-17T19:29:10.280Z,7.60
2023-03-17T19:31:41.769Z,8.00
2023-03-17T19:34:12.692Z,8.50
2023-03-17T19:36:43.400Z,7.90
2023-03-17T19:39:12.401Z,8.80
2023-03-17T19:41:41.297Z,9.50
2023-03-17T19:44:09.673Z,14.00
2023-03-17T19:46:38.667Z,7.50
2023-03-17T19:49:07.256Z,12.10
2023-03-17T19:51:36.452Z,16.00
2023-03-17T19:54:05.568Z,11.30
2023-03-17T19:56:34.848Z,15.40
2023-03-17T19:59:03.706Z,11.00
2023-03-17T20:01:32.790Z,14.10
2023-03-17T20:04:01.918Z,12.10
2023-03-17T20:06:32.259Z,16.20
2023-03-17T20:09:01.466Z,16.90
2023-03-17T20:11:34.131Z,20.10
2023-03-17T20:14:03.909Z,15.80
2023-03-17T20:16:34.963Z,13.40
2023-03-17T20:19:04.500Z,13.50
2023-03-17T20:21:32.884Z,13.50
2023-03-17T20:24:02.183Z,13.00
2023-03-17T20:26:31.177Z,10.20
2023-03-17T20:29:00.167Z,7.80
2023-03-17T20:31:29.327Z,9.50
2023-03-17T20:33:57.849Z,7.90
2023-03-17T20:36:27.357Z,11.10
2023-03-17T20:38:56.041Z,13.30
2023-03-17T20:41:24.932Z,11.40
2023-03-17T20:43:53.334Z,11.50
2023-03-17T20:46:24.257Z,9.50
2023-03-17T20:48:58.807Z,10.10
2023-03-17T20:51:28.073Z,11.20
2023-03-17T20:53:57.081Z,9.10
2023-03-17T20:56:28.728Z,11.20
2023-03-17T21:01:27.443Z,10.10
2023-03-17T21:03:56.221Z,6.90
2023-03-17T21:06:26.237Z,11.30
2023-03-17T21:08:55.780Z,8.70
2023-03-17T21:11:24.322Z,12.50
2023-03-17T21:13:53.219Z,11.90
2023-03-17T21:16:25.550Z,11.90
2023-03-17T21:18:54.565Z,14.30
2023-03-17T21:21:23.331Z,14.60
2023-03-17T21:23:52.167Z,16.40
2023-03-17T21:26:20.947Z,8.00
2023-03-17T21:28:49.640Z,8.90
2023-03-17T21:31:19.360Z,12.70
2023-03-17T21:33:51.416Z,14.30
2023-03-17T21:36:21.742Z,8.70
2023-03-17T21:38:50.454Z,9.80
2023-03-17T21:41:29.561Z,7.50
2023-03-17T21:43:58.288Z,5.60
2023-03-17T21:46:26.733Z,8.90
2023-03-17T21:48:56.323Z,12.30
2023-03-17T21:51:25.607Z,11.50
2023-03-17T21:53:54.134Z,14.70
2023-03-17T21:56:23.119Z,13.10
2023-03-17T21:58:51.712Z,10.90
2023-03-17T22:01:23.399Z,8.30
2023-03-17T22:03:52.691Z,10.50
2023-03-17T22:06:21.566Z,10.90
2023-03-17T22:08:51.159Z,10.80
2023-03-17T22:11:20.151Z,9.50
2023-03-17T22:13:49.161Z,11.20
2023-03-17T22:16:18.680Z,12.20
2023-03-17T22:18:47.951Z,10.50
2023-03-17T22:21:16.340Z,20.50
2023-03-17T22:23:45.121Z,22.80
2023-03-17T22:26:19.845Z,10.90
2023-03-17T22:28:50.707Z,13.40
2023-03-17T22:31:24.790Z,9.40
2023-03-17T22:33:56.629Z,12.70
2023-03-17T22:36:26.241Z,12.50
2023-03-17T22:38:56.398Z,13.20
2023-03-17T22:41:27.469Z,13.90
2023-03-17T22:43:56.226Z,14.40
2023-03-17T22:46:25.046Z,14.70
2023-03-17T22:48:53.891Z,13.60
2023-03-17T22:51:24.988Z,14.10
2023-03-17T22:53:54.048Z,12.80
2023-03-17T22:56:23.163Z,17.40
2023-03-17T22:58:51.830Z,17.00
2023-03-17T23:01:22.671Z,10.50
2023-03-17T23:03:51.092Z,9.60
2023-03-17T23:06:21.013Z,7.00
2023-03-17T23:08:49.537Z,11.70
2023-03-17T23:11:22.394Z,11.70
2023-03-17T23:13:52.858Z,10.10
2023-03-17T23:16:22.448Z,9.60
2023-03-17T23:18:51.787Z,7.80
2023-03-17T23:21:29.589Z,7.60
2023-03-17T23:23:58.971Z,5.80
2023-03-17T23:26:28.440Z,9.10
2023-03-17T23:28:57.087Z,7.60
2023-03-17T23:31:25.924Z,6.80
2023-03-17T23:33:54.652Z,7.20
2023-03-17T23:36:23.120Z,8.50
2023-03-17T23:38:52.625Z,6.70
2023-03-17T23:41:21.311Z,5.60
2023-03-17T23:43:50.005Z,6.30
2023-03-17T23:46:18.972Z,5.40
2023-03-17T23:48:49.321Z,4.20
2023-03-17T23:51:18.205Z,6.40
2023-03-17T23:53:46.792Z,4.10
2023-03-17T23:56:15.382Z,5.10
2023-03-17T23:58:43.958Z,5.10
